Colrain, Massachusetts
Current Conditions -  °F | °C
As of 6:52 AM on Sunday 23 Nov 2014 (Local Time) from KORE Reporting Station
Broken Clouds Broken Clouds  
Wind Chill: 30°   Ceiling: 11000
Heat Index: 30°   Visibility: 10mi
Dew Point: 26°   Wind: 0mph
Humidity: 85%   Direction: NA
Pressure: 30.09"   Gusts: NA
Location:  42.67°N, 72.7°W
Report Text: KORE 231152Z AUTO 00000KT 10SM SCT048 BKN110 M01/M03 A3009 RMK AO2 SLP197 60000 T10111033 10044 21011 53002
Loading
Personal Weather Stations






























Interactive Weather Map New forecast layout! Learn more

10-Day Weather Forecast

Advertisements
Track Severe Weather on mobile